createdAt,value
2017-12-02T00:01:55.401Z,18.80
2017-12-02T00:04:23.727Z,19.50
2017-12-02T00:06:53.396Z,19.10
2017-12-02T00:09:21.738Z,19.33
2017-12-02T00:11:50.045Z,22.03
2017-12-02T00:14:18.347Z,20.97
2017-12-02T00:16:46.684Z,23.60
2017-12-02T00:19:15.778Z,28.43
2017-12-02T00:21:44.864Z,23.57
2017-12-02T00:24:13.928Z,23.33
2017-12-02T00:26:42.294Z,26.43
2017-12-02T00:29:10.637Z,18.63
2017-12-02T00:31:38.967Z,28.80
2017-12-02T00:34:07.320Z,21.90
2017-12-02T00:36:35.646Z,35.93
2017-12-02T00:39:03.948Z,40.63
2017-12-02T00:41:33.017Z,46.70
2017-12-02T00:44:01.397Z,38.03
2017-12-02T00:46:29.664Z,36.00
2017-12-02T00:48:57.989Z,52.77
2017-12-02T00:51:27.066Z,45.33
2017-12-02T00:53:55.380Z,28.70
2017-12-02T00:56:25.028Z,24.03
2017-12-02T00:58:53.368Z,22.23
2017-12-02T01:01:22.429Z,25.63
2017-12-02T01:03:50.756Z,35.93
2017-12-02T01:06:19.840Z,28.97
2017-12-02T01:08:48.918Z,25.47
2017-12-02T01:11:17.244Z,22.47
2017-12-02T01:13:45.556Z,24.37
2017-12-02T01:16:13.881Z,26.27
2017-12-02T01:18:42.972Z,29.03
2017-12-02T01:21:12.045Z,22.90
2017-12-02T01:23:40.367Z,26.10
2017-12-02T01:26:09.464Z,28.23
2017-12-02T01:28:38.546Z,32.60
2017-12-02T01:31:08.373Z,31.50
2017-12-02T01:33:37.439Z,29.83
2017-12-02T01:36:05.758Z,31.57
2017-12-02T01:38:34.814Z,34.13
2017-12-02T01:41:03.154Z,33.40
2017-12-02T01:43:31.486Z,30.87
2017-12-02T01:45:59.793Z,33.67
2017-12-02T01:48:28.902Z,33.10
2017-12-02T01:50:57.963Z,32.57
2017-12-02T01:53:26.282Z,37.20
2017-12-02T01:55:54.618Z,39.30
2017-12-02T01:58:22.958Z,37.77
2017-12-02T02:00:52.314Z,38.80
2017-12-02T02:03:20.629Z,43.13
2017-12-02T02:05:49.714Z,41.87
2017-12-02T02:08:18.786Z,42.30
2017-12-02T02:10:47.096Z,39.03
2017-12-02T02:13:16.152Z,38.60
2017-12-02T02:15:44.487Z,38.33
2017-12-02T02:18:12.815Z,35.47
2017-12-02T02:20:41.116Z,36.23
2017-12-02T02:23:10.945Z,35.87
2017-12-02T02:25:40.134Z,35.60
2017-12-02T02:28:09.232Z,34.30
2017-12-02T02:30:38.312Z,27.93
2017-12-02T02:33:06.633Z,27.30
2017-12-02T02:35:35.748Z,26.73
2017-12-02T02:38:04.146Z,28.20
2017-12-02T02:40:32.460Z,28.37
2017-12-02T02:43:00.775Z,26.50
2017-12-02T02:45:29.877Z,28.00
2017-12-02T02:47:58.972Z,25.23
2017-12-02T02:50:28.044Z,22.90
2017-12-02T02:52:56.375Z,23.80
2017-12-02T02:55:24.700Z,26.90
2017-12-02T02:57:53.036Z,27.37
2017-12-02T03:00:21.348Z,23.57
2017-12-02T03:02:49.682Z,21.90
2017-12-02T03:05:18.784Z,21.80
2017-12-02T03:07:47.122Z,25.00
2017-12-02T03:10:15.448Z,21.37
2017-12-02T03:12:43.804Z,23.20
2017-12-02T03:15:12.898Z,22.60
2017-12-02T03:17:41.228Z,23.20
2017-12-02T03:20:09.564Z,22.20
2017-12-02T03:22:38.632Z,23.67
2017-12-02T03:25:06.957Z,21.30
2017-12-02T03:27:36.064Z,22.57
2017-12-02T03:30:04.368Z,21.47
2017-12-02T03:32:32.686Z,20.33
2017-12-02T03:35:01.037Z,36.23
2017-12-02T03:37:29.342Z,42.73
2017-12-02T03:39:57.683Z,33.47
2017-12-02T03:42:26.022Z,56.53
2017-12-02T03:44:55.094Z,71.13
2017-12-02T03:47:23.422Z,42.73
2017-12-02T03:49:52.504Z,65.30
2017-12-02T03:52:21.612Z,37.13
2017-12-02T03:54:50.798Z,43.60
2017-12-02T03:57:19.896Z,38.37
2017-12-02T03:59:48.224Z,26.40
2017-12-02T04:02:16.560Z,50.80
2017-12-02T04:04:44.925Z,37.57
2017-12-02T04:07:13.254Z,42.60
2017-12-02T04:09:41.562Z,41.93
2017-12-02T04:12:09.874Z,35.77
2017-12-02T04:14:38.211Z,33.97
2017-12-02T04:17:06.596Z,33.20
2017-12-02T04:19:34.915Z,32.10
2017-12-02T04:22:03.248Z,27.30
2017-12-02T04:24:31.557Z,33.57
2017-12-02T04:26:59.890Z,31.40
2017-12-02T04:29:28.315Z,27.83
2017-12-02T04:31:56.619Z,37.73
2017-12-02T04:34:24.934Z,35.67
2017-12-02T04:36:54.010Z,29.67
2017-12-02T04:39:23.116Z,36.43
2017-12-02T04:41:52.373Z,51.53
2017-12-02T04:44:20.702Z,39.87
2017-12-02T04:46:49.818Z,48.83
2017-12-02T04:49:18.138Z,38.67
2017-12-02T04:51:46.851Z,44.13
2017-12-02T04:54:15.162Z,44.63
2017-12-02T04:56:43.498Z,27.67
2017-12-02T04:59:11.796Z,83.17
2017-12-02T05:01:40.142Z,47.57
2017-12-02T05:04:08.458Z,46.37
2017-12-02T05:06:36.772Z,33.43
2017-12-02T05:09:05.846Z,36.73
2017-12-02T05:11:34.164Z,52.17
2017-12-02T05:14:02.486Z,49.17
2017-12-02T05:16:30.812Z,53.83
2017-12-02T05:18:59.898Z,41.83
2017-12-02T05:21:28.966Z,43.53
2017-12-02T05:23:57.316Z,31.93
2017-12-02T05:26:25.642Z,55.07
2017-12-02T05:28:54.728Z,64.50
2017-12-02T05:31:23.046Z,33.63
2017-12-02T05:33:52.134Z,35.97
2017-12-02T05:36:21.238Z,35.53
2017-12-02T05:38:50.324Z,45.60
2017-12-02T05:41:18.619Z,49.73
2017-12-02T05:43:47.690Z,66.40
2017-12-02T05:46:17.603Z,45.63
2017-12-02T05:48:46.270Z,40.27
2017-12-02T05:51:14.721Z,43.40
2017-12-02T05:53:43.033Z,52.30
2017-12-02T05:56:11.340Z,42.23
2017-12-02T05:58:39.639Z,61.10
2017-12-02T06:01:08.755Z,33.70
2017-12-02T06:03:37.931Z,30.30
2017-12-02T06:06:06.322Z,28.60
2017-12-02T06:08:35.450Z,30.73
2017-12-02T06:11:03.756Z,61.50
2017-12-02T06:13:32.058Z,41.47
2017-12-02T06:16:01.934Z,52.77
2017-12-02T06:18:30.276Z,59.90
2017-12-02T06:20:59.604Z,32.77
2017-12-02T06:23:27.920Z,57.73
2017-12-02T06:25:56.280Z,75.93
2017-12-02T06:28:24.780Z,44.23
2017-12-02T06:30:53.094Z,116.13
2017-12-02T06:33:22.169Z,53.27
2017-12-02T06:35:50.485Z,45.30
2017-12-02T06:38:19.555Z,46.43
2017-12-02T06:40:47.890Z,37.03
2017-12-02T06:43:16.202Z,33.10
2017-12-02T06:45:44.541Z,61.93
2017-12-02T06:48:12.842Z,33.93
2017-12-02T06:50:41.177Z,27.53
2017-12-02T06:53:09.522Z,35.00
2017-12-02T06:55:37.854Z,43.73
2017-12-02T06:58:06.922Z,43.47
2017-12-02T07:00:35.260Z,75.40
2017-12-02T07:03:03.563Z,61.57
2017-12-02T07:05:31.875Z,70.40
2017-12-02T07:08:00.976Z,51.93
2017-12-02T07:10:30.234Z,39.37
2017-12-02T07:12:59.815Z,74.20
2017-12-02T07:15:29.101Z,26.00
2017-12-02T07:18:00.786Z,42.90
2017-12-02T07:20:29.092Z,33.53
2017-12-02T07:22:57.408Z,28.00
2017-12-02T07:25:26.667Z,43.30
2017-12-02T07:27:54.972Z,37.13
2017-12-02T07:30:24.169Z,29.23
2017-12-02T07:32:53.223Z,25.43
2017-12-02T07:35:22.596Z,38.57
2017-12-02T07:37:51.077Z,26.87
2017-12-02T07:40:21.417Z,37.53
2017-12-02T07:42:50.902Z,24.63
2017-12-02T07:45:19.861Z,32.17
2017-12-02T07:47:48.745Z,23.97
2017-12-02T07:50:17.073Z,43.73
2017-12-02T07:52:45.826Z,49.17
2017-12-02T07:55:17.557Z,34.70
2017-12-02T07:57:48.152Z,29.87
2017-12-02T08:00:16.568Z,31.10
2017-12-02T08:02:46.766Z,30.30
2017-12-02T08:05:16.557Z,37.93
2017-12-02T08:07:44.899Z,28.63
2017-12-02T08:10:13.225Z,29.50
2017-12-02T08:12:41.567Z,33.93
2017-12-02T08:15:09.877Z,34.93
2017-12-02T08:17:38.285Z,33.77
2017-12-02T08:20:06.665Z,37.10
2017-12-02T08:22:36.035Z,34.73
2017-12-02T08:25:04.359Z,49.43
2017-12-02T08:27:33.555Z,69.90
2017-12-02T08:30:02.726Z,41.83
2017-12-02T08:32:31.077Z,21.07
2017-12-02T08:34:59.403Z,41.23
2017-12-02T08:37:27.744Z,28.37
2017-12-02T08:39:56.051Z,46.13
2017-12-02T08:42:24.352Z,39.87
2017-12-02T08:44:52.662Z,30.40
2017-12-02T08:47:22.027Z,43.67
2017-12-02T08:49:50.335Z,47.67
2017-12-02T08:52:19.471Z,46.63
2017-12-02T08:54:48.049Z,44.77
2017-12-02T08:57:16.661Z,34.33
2017-12-02T08:59:46.046Z,39.80
2017-12-02T09:02:15.266Z,47.93
2017-12-02T09:04:48.245Z,55.07
2017-12-02T09:07:17.379Z,38.53
2017-12-02T09:09:45.733Z,53.97
2017-12-02T09:12:14.053Z,43.33
2017-12-02T09:14:43.142Z,61.67
2017-12-02T09:17:11.466Z,25.27
2017-12-02T09:19:39.803Z,29.33
2017-12-02T09:22:08.153Z,77.13
2017-12-02T09:24:36.463Z,50.87
2017-12-02T09:27:04.785Z,34.07
2017-12-02T09:29:33.157Z,36.13
2017-12-02T09:32:02.242Z,71.33
2017-12-02T09:34:31.325Z,36.30
2017-12-02T09:37:00.413Z,31.93
2017-12-02T09:39:28.772Z,28.03
2017-12-02T09:41:57.423Z,32.37
2017-12-02T09:44:26.495Z,31.47
2017-12-02T09:46:56.315Z,29.03
2017-12-02T09:49:24.737Z,28.93
2017-12-02T09:51:55.111Z,29.73
2017-12-02T09:54:23.443Z,29.70
2017-12-02T09:56:51.750Z,29.20
2017-12-02T09:59:20.051Z,32.73
2017-12-02T10:01:51.814Z,30.00
2017-12-02T10:04:20.125Z,28.50
2017-12-02T10:06:49.533Z,44.10
2017-12-02T10:09:18.091Z,31.87
2017-12-02T10:11:46.399Z,28.73
2017-12-02T10:14:15.479Z,39.43
2017-12-02T10:16:45.263Z,34.70
2017-12-02T10:19:13.555Z,36.17
2017-12-02T10:21:41.918Z,28.93
2017-12-02T10:24:10.221Z,32.13
2017-12-02T10:26:38.537Z,41.90
2017-12-02T10:29:06.891Z,37.40
2017-12-02T10:31:35.977Z,39.30
2017-12-02T10:34:04.281Z,29.60
2017-12-02T10:36:32.593Z,46.57
2017-12-02T10:39:00.929Z,53.57
2017-12-02T10:41:29.243Z,68.93
2017-12-02T10:43:57.561Z,29.93
2017-12-02T10:46:25.876Z,66.13
2017-12-02T10:48:54.190Z,34.70
2017-12-02T10:51:22.497Z,77.40
2017-12-02T10:53:50.813Z,35.07
2017-12-02T10:56:19.111Z,38.80
2017-12-02T10:58:48.225Z,37.03
2017-12-02T11:01:17.259Z,43.87
2017-12-02T11:03:45.586Z,49.37
2017-12-02T11:06:14.717Z,53.80
2017-12-02T11:08:43.905Z,94.20
2017-12-02T11:11:12.321Z,50.00
2017-12-02T11:13:40.654Z,54.77
2017-12-02T11:16:09.747Z,76.80
2017-12-02T11:18:39.088Z,63.93
2017-12-02T11:21:08.203Z,55.77
2017-12-02T11:23:36.505Z,44.67
2017-12-02T11:26:04.803Z,39.67
2017-12-02T11:28:33.447Z,42.97
2017-12-02T11:31:02.570Z,44.10
2017-12-02T11:33:30.889Z,44.53
2017-12-02T11:35:59.203Z,41.03
2017-12-02T11:38:27.731Z,43.70
2017-12-02T11:40:56.073Z,40.27
2017-12-02T11:43:24.395Z,42.50
2017-12-02T11:45:53.471Z,40.50
2017-12-02T11:48:21.799Z,45.00
2017-12-02T11:50:50.859Z,42.63
2017-12-02T11:53:19.943Z,48.87
2017-12-02T11:55:48.263Z,46.23
2017-12-02T11:58:17.501Z,43.00
2017-12-02T12:00:45.802Z,45.30
2017-12-02T12:03:14.135Z,41.80
2017-12-02T12:05:43.207Z,41.47
2017-12-02T12:08:11.852Z,45.87
2017-12-02T12:10:40.152Z,42.80
2017-12-02T12:13:08.479Z,40.63
2017-12-02T12:15:37.551Z,42.83
2017-12-02T12:18:07.096Z,43.23
2017-12-02T12:20:35.432Z,39.50
2017-12-02T12:23:05.275Z,43.70
2017-12-02T12:25:34.361Z,46.73
2017-12-02T12:28:02.695Z,46.23
2017-12-02T12:30:31.011Z,40.33
2017-12-02T12:32:59.333Z,39.50
2017-12-02T12:35:29.101Z,43.20
2017-12-02T12:37:57.487Z,41.77
2017-12-02T12:40:27.296Z,40.20
2017-12-02T12:42:55.660Z,46.30
2017-12-02T12:45:24.015Z,37.97
2017-12-02T12:47:52.327Z,40.20
2017-12-02T12:50:20.642Z,40.80
2017-12-02T12:52:48.961Z,37.30
2017-12-02T12:55:17.262Z,35.60
2017-12-02T12:57:45.574Z,47.43
2017-12-02T13:00:13.895Z,42.30
2017-12-02T13:02:42.199Z,41.17
2017-12-02T13:05:10.535Z,38.47
2017-12-02T13:07:39.947Z,39.63
2017-12-02T13:10:08.577Z,37.37
2017-12-02T13:12:36.902Z,42.50
2017-12-02T13:15:05.975Z,38.90
2017-12-02T13:17:34.359Z,30.53
2017-12-02T13:20:03.455Z,41.00
2017-12-02T13:22:32.641Z,37.10
2017-12-02T13:25:01.011Z,39.93
2017-12-02T13:27:29.343Z,41.53
2017-12-02T13:29:58.491Z,40.67
2017-12-02T13:32:26.789Z,41.03
2017-12-02T13:34:55.101Z,37.17
2017-12-02T13:37:23.441Z,38.27
2017-12-02T13:39:51.740Z,40.53
2017-12-02T13:42:20.071Z,37.77
2017-12-02T13:44:48.395Z,38.50
2017-12-02T13:47:16.714Z,38.10
2017-12-02T13:49:45.876Z,41.33
2017-12-02T13:52:14.158Z,36.37
2017-12-02T13:54:42.488Z,36.83
2017-12-02T13:57:10.808Z,40.97
2017-12-02T13:59:39.175Z,39.53
2017-12-02T14:02:07.525Z,35.83
2017-12-02T14:04:36.604Z,42.70
2017-12-02T14:07:05.843Z,49.57
2017-12-02T14:09:34.146Z,43.17
2017-12-02T14:12:02.466Z,47.77
2017-12-02T14:14:31.539Z,46.20
2017-12-02T14:16:59.878Z,51.10
2017-12-02T14:19:28.190Z,47.23
2017-12-02T14:21:57.358Z,47.03
2017-12-02T14:24:25.659Z,54.03
2017-12-02T14:26:53.970Z,47.80
2017-12-02T14:29:23.845Z,51.70
2017-12-02T14:31:52.189Z,48.90
2017-12-02T14:34:21.355Z,44.10
2017-12-02T14:36:50.765Z,46.60
2017-12-02T14:39:19.193Z,47.03
2017-12-02T14:41:47.602Z,56.07
2017-12-02T14:44:16.013Z,51.93
2017-12-02T14:46:44.382Z,43.97
2017-12-02T14:49:12.771Z,54.23
2017-12-02T14:51:41.157Z,51.63
2017-12-02T14:54:09.954Z,52.83
2017-12-02T14:56:38.326Z,52.87
2017-12-02T14:59:07.554Z,43.60
2017-12-02T15:01:36.650Z,45.13
2017-12-02T15:04:06.573Z,42.63
2017-12-02T15:06:34.976Z,51.40
2017-12-02T15:09:05.480Z,50.53
2017-12-02T15:11:33.900Z,49.63
2017-12-02T15:14:02.209Z,59.77
2017-12-02T15:16:32.238Z,52.53
2017-12-02T15:19:01.069Z,53.03
2017-12-02T15:21:30.185Z,53.30
2017-12-02T15:23:58.494Z,55.57
2017-12-02T15:26:26.806Z,58.57
2017-12-02T15:28:55.155Z,60.80
2017-12-02T15:31:23.476Z,53.90
2017-12-02T15:33:52.556Z,57.83
2017-12-02T15:36:21.120Z,58.73
2017-12-02T15:38:49.443Z,60.53
2017-12-02T15:41:18.517Z,58.30
2017-12-02T15:43:47.014Z,59.80
2017-12-02T15:46:15.330Z,65.93
2017-12-02T15:48:44.442Z,64.40
2017-12-02T15:51:13.483Z,61.33
2017-12-02T15:53:43.996Z,69.23
2017-12-02T15:56:16.170Z,64.87
2017-12-02T15:58:45.006Z,73.93
2017-12-02T16:01:13.899Z,66.53
2017-12-02T16:03:43.009Z,69.20
2017-12-02T16:06:12.102Z,69.37
2017-12-02T16:08:41.188Z,70.93
2017-12-02T16:11:09.536Z,72.47
2017-12-02T16:13:37.864Z,67.33
2017-12-02T16:16:06.185Z,76.47
2017-12-02T16:18:34.494Z,67.97
2017-12-02T16:21:02.830Z,76.70
2017-12-02T16:23:31.138Z,115.70
2017-12-02T16:25:59.434Z,84.83
2017-12-02T16:28:27.785Z,73.93
2017-12-02T16:30:56.120Z,113.23
2017-12-02T16:33:25.204Z,74.77
2017-12-02T16:35:53.538Z,96.00
2017-12-02T16:38:21.832Z,75.37
2017-12-02T16:40:50.150Z,95.60
2017-12-02T16:43:19.230Z,71.80
2017-12-02T16:45:47.558Z,78.90
2017-12-02T16:48:15.884Z,77.97
2017-12-02T16:50:44.194Z,79.13
2017-12-02T16:53:12.511Z,80.40
2017-12-02T16:55:40.805Z,70.97
2017-12-02T16:58:09.136Z,101.30
2017-12-02T17:00:37.460Z,101.07
2017-12-02T17:03:05.836Z,87.57
2017-12-02T17:05:34.326Z,72.23
2017-12-02T17:08:02.657Z,77.33
2017-12-02T17:10:30.958Z,66.80
2017-12-02T17:13:00.023Z,72.43
2017-12-02T17:15:28.370Z,68.30
2017-12-02T17:17:56.664Z,69.27
2017-12-02T17:20:25.104Z,65.37
2017-12-02T17:22:55.660Z,77.10
2017-12-02T17:25:24.386Z,72.10
2017-12-02T17:27:54.024Z,85.67
2017-12-02T17:30:23.760Z,68.90
2017-12-02T17:32:52.074Z,77.10
2017-12-02T17:35:20.536Z,81.32
2017-12-02T17:37:48.990Z,81.27
2017-12-02T17:40:17.366Z,84.47
2017-12-02T17:42:48.182Z,86.13
2017-12-02T17:45:17.652Z,80.53
2017-12-02T17:47:46.944Z,89.27
2017-12-02T17:50:15.255Z,87.33
2017-12-02T17:52:46.316Z,80.53
2017-12-02T17:55:15.188Z,88.33
2017-12-02T17:57:43.496Z,76.23
2017-12-02T18:00:12.711Z,80.70
2017-12-02T18:02:41.880Z,91.37
2017-12-02T18:05:12.137Z,122.03
2017-12-02T18:07:40.893Z,86.90
2017-12-02T18:10:09.194Z,89.80
2017-12-02T18:12:39.269Z,90.03
2017-12-02T18:15:07.562Z,87.13
2017-12-02T18:17:36.439Z,91.17
2017-12-02T18:20:04.789Z,95.13
2017-12-02T18:22:33.145Z,206.40
2017-12-02T18:25:01.466Z,161.67
2017-12-02T18:27:34.200Z,182.67
2017-12-02T18:30:04.912Z,126.73
2017-12-02T18:32:38.270Z,115.50
2017-12-02T18:35:07.377Z,103.57
2017-12-02T18:37:39.945Z,127.17
2017-12-02T18:40:09.046Z,94.53
2017-12-02T18:42:38.277Z,92.60
2017-12-02T18:45:06.841Z,95.80
2017-12-02T18:47:35.906Z,88.53
2017-12-02T18:50:05.077Z,81.60
2017-12-02T18:52:33.394Z,80.03
2017-12-02T18:55:01.714Z,80.30
2017-12-02T18:57:30.031Z,157.33
2017-12-02T18:59:58.366Z,101.33
2017-12-02T19:02:26.684Z,97.67
2017-12-02T19:04:54.989Z,100.40
2017-12-02T19:07:23.321Z,103.03
2017-12-02T19:09:51.646Z,99.37
2017-12-02T19:12:20.077Z,108.07
2017-12-02T19:14:48.423Z,98.83
2017-12-02T19:17:17.563Z,90.90
2017-12-02T19:19:45.884Z,92.37
2017-12-02T19:22:14.229Z,88.53
2017-12-02T19:24:43.381Z,91.27
2017-12-02T19:27:11.693Z,93.83
2017-12-02T19:29:40.048Z,96.13
2017-12-02T19:32:09.140Z,85.17
2017-12-02T19:34:38.341Z,88.10
2017-12-02T19:37:07.407Z,84.60
2017-12-02T19:39:35.761Z,91.70
2017-12-02T19:42:04.102Z,92.67
2017-12-02T19:44:34.053Z,103.63
2017-12-02T19:47:02.559Z,92.70
2017-12-02T19:49:30.910Z,91.00
2017-12-02T19:52:00.073Z,89.33
2017-12-02T19:54:28.424Z,97.40
2017-12-02T19:56:56.876Z,92.93
2017-12-02T19:59:27.595Z,85.90
2017-12-02T20:01:56.188Z,91.97
2017-12-02T20:04:25.362Z,76.03
2017-12-02T20:06:54.421Z,87.73
2017-12-02T20:09:22.765Z,80.13
2017-12-02T20:11:51.841Z,82.37
2017-12-02T20:14:20.155Z,80.13
2017-12-02T20:16:49.450Z,84.57
2017-12-02T20:19:18.524Z,81.47
2017-12-02T20:21:46.843Z,78.77
2017-12-02T20:24:15.198Z,85.80
2017-12-02T20:26:44.321Z,75.40
2017-12-02T20:29:12.629Z,84.93
2017-12-02T20:31:40.942Z,72.10
2017-12-02T20:34:09.383Z,90.67
2017-12-02T20:36:37.877Z,73.20
2017-12-02T20:39:06.215Z,82.27
2017-12-02T20:41:35.327Z,80.33
2017-12-02T20:44:04.421Z,76.63
2017-12-02T20:46:33.484Z,74.33
2017-12-02T20:49:01.809Z,78.03
2017-12-02T20:51:30.177Z,83.30
2017-12-02T20:53:59.241Z,75.80
2017-12-02T20:56:29.069Z,78.90
2017-12-02T20:58:57.362Z,69.33
2017-12-02T21:01:26.468Z,78.57
2017-12-02T21:03:54.743Z,76.20
2017-12-02T21:06:23.869Z,77.87
2017-12-02T21:08:53.223Z,70.43
2017-12-02T21:11:21.714Z,79.03
2017-12-02T21:13:50.795Z,81.93
2017-12-02T21:16:19.151Z,69.30
2017-12-02T21:18:47.542Z,76.13
2017-12-02T21:21:16.961Z,71.43
2017-12-02T21:23:45.415Z,71.53
2017-12-02T21:26:13.806Z,71.90
2017-12-02T21:28:42.213Z,73.33
2017-12-02T21:31:10.538Z,70.23
2017-12-02T21:33:39.645Z,80.37
2017-12-02T21:36:08.779Z,77.53
2017-12-02T21:38:37.077Z,76.60
2017-12-02T21:41:05.415Z,78.17
2017-12-02T21:43:33.723Z,68.53
2017-12-02T21:46:02.027Z,70.60
2017-12-02T21:48:31.093Z,68.70
2017-12-02T21:50:59.405Z,65.30
2017-12-02T21:53:27.708Z,68.30
2017-12-02T21:55:56.948Z,70.30
2017-12-02T21:58:25.268Z,73.70
2017-12-02T22:00:53.579Z,71.83
2017-12-02T22:03:21.890Z,79.13
2017-12-02T22:05:51.048Z,78.40
2017-12-02T22:08:20.139Z,77.73
2017-12-02T22:10:49.226Z,86.43
2017-12-02T22:13:18.311Z,79.13
2017-12-02T22:15:46.617Z,76.90
2017-12-02T22:18:14.962Z,82.90
2017-12-02T22:20:46.655Z,83.87
2017-12-02T22:23:14.967Z,83.13
2017-12-02T22:25:43.297Z,74.87
2017-12-02T22:28:11.635Z,77.13
2017-12-02T22:30:39.949Z,73.37
2017-12-02T22:33:08.275Z,79.60
2017-12-02T22:35:37.363Z,75.73
2017-12-02T22:38:05.679Z,76.80
2017-12-02T22:40:34.048Z,81.20
2017-12-02T22:43:02.371Z,86.37
2017-12-02T22:45:30.700Z,82.47
2017-12-02T22:47:59.795Z,77.33
2017-12-02T22:50:28.876Z,85.30
2017-12-02T22:52:57.313Z,75.33
2017-12-02T22:55:25.628Z,86.17
2017-12-02T22:57:53.928Z,82.33
2017-12-02T23:00:23.007Z,84.10
2017-12-02T23:02:51.323Z,78.70
2017-12-02T23:05:19.660Z,83.17
2017-12-02T23:07:47.985Z,74.50
2017-12-02T23:10:16.309Z,78.73
2017-12-02T23:12:44.641Z,78.13
2017-12-02T23:15:13.729Z,77.30
2017-12-02T23:17:42.856Z,82.83
2017-12-02T23:20:11.196Z,79.17
2017-12-02T23:22:40.999Z,88.00
2017-12-02T23:25:09.337Z,84.83
2017-12-02T23:27:37.641Z,76.33
2017-12-02T23:30:05.961Z,86.57
2017-12-02T23:32:34.283Z,65.17
2017-12-02T23:35:02.607Z,91.27
2017-12-02T23:37:30.942Z,85.90
2017-12-02T23:40:00.142Z,90.40
2017-12-02T23:42:28.559Z,75.87
2017-12-02T23:44:56.877Z,92.67
2017-12-02T23:47:25.968Z,84.47
2017-12-02T23:49:54.282Z,85.27
2017-12-02T23:52:23.404Z,86.80
2017-12-02T23:54:51.731Z,90.20
2017-12-02T23:57:20.816Z,94.63
2017-12-02T23:59:49.884Z,88.10
